Time;durP1;ratioP1;P1;durP2;ratioP2;P2;SDS_P1;SDS_P2;PMS_P1;PMS_P2;Temp;Humidity;BMP_temperature;BMP_pressure;BME280_temperature;BME280_humidity;BME280_pressure;Samples;Min_cycle;Max_cycle;Signal;HPM_P1;HPM_P2
2021/12/13 00:00:23;;;;;;;6.15;5.55;;;;;;;8.31;82.43;99769.09;4998670;28;102717;-65
2021/12/13 00:03:01;;;;;;;5.87;5.37;;;;;;;8.31;83.22;99771.72;4996995;28;104137;-65
2021/12/13 00:05:34;;;;;;;6.47;5.40;;;;;;;8.23;83.24;99766.75;5008993;28;103240;-65
2021/12/13 00:08:09;;;;;;;4.80;4.40;;;;;;;8.24;83.71;99768.47;4999811;28;102845;-65
2021/12/13 00:10:39;;;;;;;6.80;6.07;;;;;;;8.20;83.46;99766.91;5002354;28;104196;-66
2021/12/13 00:13:13;;;;;;;6.87;5.53;;;;;;;8.11;84.03;99762.06;5002391;28;103876;-66
2021/12/13 00:15:48;;;;;;;6.10;5.50;;;;;;;8.22;84.21;99772.09;5006124;28;103229;-65
2021/12/13 00:18:22;;;;;;;6.63;5.90;;;;;;;7.83;86.69;99766.88;5003529;28;102573;-65
2021/12/13 00:20:57;;;;;;;8.13;6.77;;;;;;;7.71;87.31;99767.41;5004069;28;103788;-66
2021/12/13 00:23:29;;;;;;;5.00;4.60;;;;;;;8.00;87.05;99770.44;4996935;28;103256;-70
2021/12/13 00:26:00;;;;;;;12.07;8.50;;;;;;;7.71;85.78;99770.03;5012315;28;103185;-70
2021/12/13 00:28:35;;;;;;;9.23;8.03;;;;;;;7.18;88.92;99773.19;5008362;28;102897;-70
2021/12/13 00:31:18;;;;;;;9.13;8.10;;;;;;;7.01;91.53;99775.66;5008781;28;103796;-65
2021/12/13 00:34:09;;;;;;;7.85;6.65;;;;;;;7.39;91.15;99767.00;5002097;28;103445;-65
2021/12/13 00:36:43;;;;;;;9.35;7.85;;;;;;;7.21;90.05;99773.06;4997874;28;103232;-65
2021/12/13 00:39:15;;;;;;;11.07;9.73;;;;;;;6.74;93.47;99771.50;5000359;28;102799;-65
2021/12/13 00:41:47;;;;;;;9.48;8.55;;;;;;;6.69;94.53;99770.81;5000587;28;103914;-65
2021/12/13 00:44:19;;;;;;;9.13;8.13;;;;;;;7.08;93.15;99777.09;5001807;28;103263;-65
2021/12/13 00:46:50;;;;;;;13.98;11.63;;;;;;;6.53;94.62;99782.84;4999537;28;104247;-69
2021/12/13 00:49:24;;;;;;;15.75;13.23;;;;;;;6.37;96.21;99772.94;5001742;28;102690;-70
2021/12/13 00:51:56;;;;;;;9.52;8.68;;;;;;;6.85;95.10;99775.41;5012140;28;102572;-69
2021/12/13 00:54:26;;;;;;;8.55;7.65;;;;;;;7.05;93.14;99777.22;5001840;28;104295;-70
2021/12/13 00:57:16;;;;;;;11.35;8.52;;;;;;;6.97;93.54;99779.31;4996580;27;103429;-65
2021/12/13 00:59:47;;;;;;;12.05;8.90;;;;;;;6.76;93.50;99775.78;4999792;28;102666;-69
2021/12/13 01:02:18;;;;;;;7.13;6.50;;;;;;;7.11;93.99;99773.47;5001147;28;102614;-69
2021/12/13 01:05:02;;;;;;;7.97;6.80;;;;;;;7.44;92.16;99779.94;5007176;28;103760;-69
2021/12/13 01:08:08;;;;;;;7.18;6.57;;;;;;;7.53;90.70;99772.53;5007329;28;102996;-65
2021/12/13 01:11:15;;;;;;;9.82;8.32;;;;;;;7.19;91.18;99780.13;5005292;28;102706;-69
2021/12/13 01:14:07;;;;;;;8.48;7.72;;;;;;;7.31;91.24;99774.38;5003121;28;102587;-69
2021/12/13 01:16:52;;;;;;;10.50;9.47;;;;;;;7.03;92.72;99773.81;5004299;28;103162;-69
2021/12/13 01:19:32;;;;;;;9.32;8.52;;;;;;;7.10;93.36;99777.91;4995870;28;103277;-69
2021/12/13 01:22:34;;;;;;;8.05;7.35;;;;;;;7.38;92.34;99777.59;5010573;28;103783;-69
2021/12/13 01:25:23;;;;;;;8.68;7.88;;;;;;;7.44;91.64;99774.69;5010162;28;103762;-65
2021/12/13 01:28:02;;;;;;;9.30;8.25;;;;;;;7.55;90.84;99778.56;5009851;28;103459;-64
2021/12/13 01:30:33;;;;;;;8.30;7.50;;;;;;;7.68;90.52;99772.78;5004767;28;103357;-69
2021/12/13 01:33:04;;;;;;;8.73;7.82;;;;;;;7.66;90.07;99775.50;5000075;28;102616;-69
2021/12/13 01:35:37;;;;;;;7.85;7.18;;;;;;;7.73;89.47;99778.69;5008772;27;102869;-69
2021/12/13 01:38:15;;;;;;;9.20;8.23;;;;;;;7.76;89.18;99781.19;5014101;28;102955;-70
2021/12/13 01:40:53;;;;;;;7.72;7.13;;;;;;;7.74;89.52;99789.16;5001484;27;103831;-70
2021/12/13 01:43:26;;;;;;;6.90;6.30;;;;;;;7.86;89.30;99785.16;5000160;28;102754;-69
2021/12/13 01:45:56;;;;;;;6.43;5.93;;;;;;;7.94;89.00;99783.03;5003865;28;102784;-70
2021/12/13 01:48:28;;;;;;;6.55;6.05;;;;;;;7.98;88.83;99781.94;5005803;28;103454;-70
2021/12/13 01:51:04;;;;;;;6.43;5.85;;;;;;;8.03;88.56;99787.84;4999730;28;103126;-71
2021/12/13 01:53:39;;;;;;;10.35;9.27;;;;;;;7.71;88.51;99791.06;5000912;28;102671;-70
2021/12/13 01:56:24;;;;;;;8.15;7.38;;;;;;;7.73;89.55;99786.59;5002426;28;102842;-65
2021/12/13 01:58:55;;;;;;;8.95;8.15;;;;;;;7.75;89.30;99785.59;5009507;28;103479;-65
2021/12/13 02:01:25;;;;;;;7.43;6.83;;;;;;;7.92;89.57;99785.72;4992432;28;103187;-65
2021/12/13 02:03:58;;;;;;;12.70;9.40;;;;;;;7.71;88.44;99780.56;5011748;28;102709;-65
2021/12/13 02:06:34;;;;;;;10.32;9.43;;;;;;;7.75;89.99;99784.78;5001486;28;102788;-65
2021/12/13 02:09:10;;;;;;;11.95;10.85;;;;;;;7.45;89.83;99795.69;4998372;28;102544;-65
2021/12/13 02:11:43;;;;;;;7.82;7.13;;;;;;;7.75;90.39;99785.59;4999881;28;103160;-70
2021/12/13 02:14:16;;;;;;;10.10;9.18;;;;;;;7.73;90.14;99781.34;5011148;27;102624;-70
2021/12/13 02:17:01;;;;;;;7.43;6.80;;;;;;;7.94;89.85;99780.41;5007228;27;103482;-65
2021/12/13 02:19:37;;;;;;;8.20;7.50;;;;;;;7.98;89.39;99779.31;4999323;28;104082;-65
2021/12/13 02:22:10;;;;;;;8.52;7.57;;;;;;;7.93;89.63;99778.69;5003381;28;102927;-65
2021/12/13 02:24:40;;;;;;;9.45;7.53;;;;;;;7.86;90.32;99778.09;5008727;28;102860;-70
2021/12/13 02:27:08;;;;;;;11.52;9.00;;;;;;;7.71;90.61;99772.66;5013894;27;102655;-69
2021/12/13 02:29:38;;;;;;;8.80;7.75;;;;;;;7.69;91.69;99782.41;4998698;28;103676;-70
2021/12/13 02:32:11;;;;;;;9.40;8.43;;;;;;;7.78;90.92;99779.34;5001593;28;103271;-70
2021/12/13 02:34:42;;;;;;;10.88;9.77;;;;;;;7.60;91.27;99786.28;5004210;27;102691;-65
2021/12/13 02:37:12;;;;;;;10.10;9.03;;;;;;;7.79;91.27;99781.06;4997832;28;103832;-66
2021/12/13 02:39:45;;;;;;;11.57;10.38;;;;;;;7.55;92.65;99788.25;5001800;28;103252;-70
2021/12/13 02:42:17;;;;;;;9.57;8.67;;;;;;;7.83;91.75;99782.66;4998277;28;103202;-70
2021/12/13 02:44:49;;;;;;;11.02;10.02;;;;;;;7.63;90.98;99786.16;4999301;28;102682;-69
2021/12/13 02:47:22;;;;;;;11.07;9.90;;;;;;;7.46;92.89;99789.50;5004302;28;102712;-70
2021/12/13 02:49:53;;;;;;;11.05;9.65;;;;;;;7.62;92.37;99783.56;4998907;28;103524;-69
2021/12/13 02:52:23;;;;;;;8.90;8.10;;;;;;;7.79;92.20;99791.59;5004669;28;103177;-70
2021/12/13 02:54:56;;;;;;;8.80;7.93;;;;;;;7.95;90.91;99792.63;5009049;28;103807;-70
2021/12/13 02:57:29;;;;;;;8.00;7.20;;;;;;;7.97;90.84;99785.53;5005978;27;102629;-69
2021/12/13 03:00:06;;;;;;;11.30;8.87;;;;;;;7.77;91.63;99788.19;5001253;28;104352;-65
2021/12/13 03:02:39;;;;;;;9.43;8.48;;;;;;;7.67;91.93;99786.84;4993993;28;103208;-65
2021/12/13 03:05:11;;;;;;;9.15;7.70;;;;;;;7.63;92.60;99790.56;5000801;28;102913;-70
2021/12/13 03:07:45;;;;;;;8.70;7.82;;;;;;;7.59;92.90;99781.94;5000082;28;102655;-70
2021/12/13 03:10:21;;;;;;;9.45;8.48;;;;;;;7.47;93.58;99785.94;4996161;28;104043;-70
2021/12/13 03:12:49;;;;;;;7.45;6.75;;;;;;;7.80;92.34;99780.16;4994906;28;103091;-69
2021/12/13 03:15:24;;;;;;;7.15;6.55;;;;;;;7.85;92.02;99780.81;4997028;28;102948;-69
2021/12/13 03:17:57;;;;;;;7.65;6.95;;;;;;;7.93;91.52;99776.06;4999024;28;102605;-69
2021/12/13 03:20:52;;;;;;;11.02;8.82;;;;;;;7.62;92.80;99778.31;4998422;28;102822;-69
2021/12/13 03:23:31;;;;;;;10.13;8.30;;;;;;;7.64;92.68;99782.59;5010134;28;103259;-70
2021/12/13 03:26:15;;;;;;;8.85;7.72;;;;;;;7.80;92.33;99783.66;5003218;28;102597;-70
2021/12/13 03:28:59;;;;;;;6.93;6.23;;;;;;;7.93;91.75;99783.94;5001597;27;103783;-70
2021/12/13 03:31:36;;;;;;;6.63;6.00;;;;;;;8.07;91.02;99797.34;4997549;28;103216;-65
2021/12/13 03:34:07;;;;;;;5.70;5.20;;;;;;;8.15;90.35;99789.94;4998574;28;103108;-65
2021/12/13 03:36:49;;;;;;;6.68;6.15;;;;;;;8.21;89.79;99787.03;5009533;27;102572;-65
2021/12/13 03:39:21;;;;;;;8.65;7.30;;;;;;;8.12;89.38;99790.09;5004637;28;104370;-65
2021/12/13 03:41:54;;;;;;;6.40;5.90;;;;;;;8.20;89.46;99787.97;5002813;27;103978;-66
2021/12/13 03:44:25;;;;;;;6.32;5.72;;;;;;;8.22;89.25;99786.13;5008191;27;103184;-65
2021/12/13 03:46:59;;;;;;;6.18;5.60;;;;;;;8.28;89.22;99788.50;5006064;27;102594;-65
2021/12/13 03:49:28;;;;;;;5.75;5.25;;;;;;;8.31;88.86;99788.34;5002328;28;103855;-66
2021/12/13 03:51:58;;;;;;;7.82;6.57;;;;;;;8.34;88.43;99782.09;4999818;28;103312;-65
2021/12/13 03:54:32;;;;;;;6.72;6.03;;;;;;;8.36;88.54;99789.03;5002769;28;103508;-66
2021/12/13 03:57:03;;;;;;;6.40;5.80;;;;;;;8.37;88.20;99781.94;5003231;28;103712;-65
2021/12/13 03:59:35;;;;;;;8.10;7.13;;;;;;;8.35;87.83;99787.28;5004096;28;104000;-65
2021/12/13 04:02:06;;;;;;;10.27;8.37;;;;;;;7.92;89.33;99790.97;5003399;28;103218;-70
2021/12/13 04:04:39;;;;;;;7.40;6.53;;;;;;;8.08;90.33;99784.09;4999723;28;103418;-70
2021/12/13 04:07:12;;;;;;;11.73;9.10;;;;;;;7.78;90.97;99784.59;5001330;28;102731;-70
2021/12/13 04:09:44;;;;;;;10.33;8.20;;;;;;;7.83;91.74;99788.75;5001053;28;102827;-69
2021/12/13 04:12:15;;;;;;;7.70;7.00;;;;;;;7.95;91.53;99789.97;5005866;28;103290;-70
2021/12/13 04:14:51;;;;;;;13.60;10.23;;;;;;;7.31;93.54;99795.41;5002561;28;103196;-70
2021/12/13 04:17:36;;;;;;;12.53;9.47;;;;;;;7.41;93.93;99791.44;5003956;28;102662;-70
2021/12/13 04:20:09;;;;;;;8.55;7.10;;;;;;;7.77;93.11;99794.31;5003794;28;102828;-70
2021/12/13 04:22:49;;;;;;;14.25;9.20;;;;;;;7.69;91.55;99790.28;5006163;27;103990;-69
2021/12/13 04:25:20;;;;;;;12.95;11.13;;;;;;;7.01;95.51;99799.31;5010709;28;103170;-69
2021/12/13 04:28:00;;;;;;;13.68;11.20;;;;;;;6.84;98.36;99799.97;4995380;28;102733;-69
2021/12/13 04:30:34;;;;;;;11.93;9.85;;;;;;;7.10;98.36;99806.81;4997279;28;102805;-69
2021/12/13 04:33:07;;;;;;;10.30;8.60;;;;;;;7.39;96.81;99808.22;4995807;28;103307;-69
2021/12/13 04:35:36;;;;;;;7.55;6.82;;;;;;;7.71;94.97;99805.09;4999684;28;103193;-69
2021/12/13 04:38:08;;;;;;;15.38;11.50;;;;;;;7.10;94.83;99809.44;4998637;28;102574;-69
2021/12/13 04:40:39;;;;;;;17.50;13.40;;;;;;;6.63;98.87;99810.44;4994727;28;102849;-70
2021/12/13 04:43:11;;;;;;;16.93;12.23;;;;;;;6.80;98.74;99813.28;4998366;28;103193;-69
2021/12/13 04:45:42;;;;;;;18.27;14.45;;;;;;;6.60;100.00;99813.19;5006522;28;103415;-70
2021/12/13 04:48:13;;;;;;;11.95;10.20;;;;;;;7.06;99.66;99825.38;4994375;28;102948;-70
2021/12/13 04:50:49;;;;;;;10.50;9.35;;;;;;;7.51;97.14;99824.34;5000147;28;103774;-70
2021/12/13 04:53:22;;;;;;;9.65;8.45;;;;;;;7.71;95.57;99820.88;5012958;28;103247;-65
2021/12/13 04:55:55;;;;;;;7.97;7.32;;;;;;;7.65;95.22;99815.88;5003118;27;103198;-65
2021/12/13 04:58:25;;;;;;;7.45;6.75;;;;;;;7.86;94.14;99809.66;5003433;28;102513;-67
2021/12/13 05:00:56;;;;;;;13.65;10.93;;;;;;;7.27;94.72;99812.22;4996517;28;102983;-67
2021/12/13 05:03:30;;;;;;;15.48;12.48;;;;;;;7.07;96.07;99819.22;4996251;28;103214;-67
2021/12/13 05:06:05;;;;;;;15.88;11.90;;;;;;;7.14;96.75;99823.28;5008815;28;103307;-67
2021/12/13 05:08:34;;;;;;;7.65;6.95;;;;;;;7.63;95.83;99815.09;5000254;28;102643;-67
2021/12/13 05:11:06;;;;;;;9.13;8.18;;;;;;;7.85;94.27;99813.25;4990445;28;102951;-67
2021/12/13 05:13:40;;;;;;;8.07;7.30;;;;;;;7.94;93.52;99818.06;4996854;28;103178;-67
2021/12/13 05:16:10;;;;;;;9.60;8.60;;;;;;;7.97;92.59;99825.00;5009279;27;103188;-68
2021/12/13 05:18:45;;;;;;;9.80;8.65;;;;;;;8.01;91.92;99821.28;5006227;28;102966;-68
2021/12/13 05:21:17;;;;;;;8.15;7.45;;;;;;;8.11;91.56;99827.88;4997823;28;102929;-68
2021/12/13 05:23:52;;;;;;;8.57;7.78;;;;;;;8.15;91.23;99832.06;4992185;28;103938;-67
2021/12/13 05:26:32;;;;;;;9.35;8.38;;;;;;;8.11;90.20;99830.50;4998138;28;103209;-67
2021/12/13 05:29:04;;;;;;;10.52;9.52;;;;;;;7.98;90.87;99837.22;4996898;28;102675;-69
2021/12/13 05:31:33;;;;;;;9.05;8.23;;;;;;;8.14;91.01;99830.34;4993943;28;102775;-69
2021/12/13 05:34:05;;;;;;;10.60;8.93;;;;;;;8.13;90.35;99839.19;4996638;28;103276;-69
2021/12/13 05:36:36;;;;;;;7.88;7.07;;;;;;;8.24;90.29;99836.06;4998337;28;102994;-68
2021/12/13 05:39:13;;;;;;;9.10;8.20;;;;;;;8.31;89.60;99842.81;5010265;28;102927;-68
2021/12/13 05:41:51;;;;;;;9.60;8.40;;;;;;;8.30;89.49;99844.59;5002846;28;103829;-66
2021/12/13 05:44:27;;;;;;;9.00;8.10;;;;;;;8.27;89.56;99850.00;4998593;28;103996;-66
2021/12/13 05:46:57;;;;;;;8.00;7.20;;;;;;;8.34;89.64;99851.41;4996975;28;103274;-66
2021/12/13 05:49:28;;;;;;;7.88;7.10;;;;;;;8.41;88.93;99852.00;4999068;28;103021;-66
2021/12/13 05:52:06;;;;;;;7.75;7.05;;;;;;;8.39;88.80;99859.97;5001883;28;102725;-66
2021/12/13 05:54:37;;;;;;;8.82;7.93;;;;;;;8.42;88.41;99854.53;5000216;27;103263;-67
2021/12/13 05:57:11;;;;;;;10.13;9.10;;;;;;;8.27;88.53;99859.63;4996650;28;103213;-66
2021/12/13 05:59:53;;;;;;;8.00;7.30;;;;;;;8.36;88.88;99846.94;5002695;27;102615;-65
2021/12/13 06:02:41;;;;;;;7.97;7.17;;;;;;;8.45;89.00;99846.50;4998929;28;103000;-66
2021/12/13 06:05:15;;;;;;;8.63;7.75;;;;;;;8.43;87.87;99848.38;4996243;28;103247;-66
2021/12/13 06:07:54;;;;;;;11.73;10.52;;;;;;;7.89;91.78;99854.25;4990548;28;103185;-66
2021/12/13 06:10:25;;;;;;;11.32;10.18;;;;;;;7.83;92.42;99857.16;4994927;28;102981;-66
2021/12/13 06:12:56;;;;;;;9.40;8.50;;;;;;;8.11;91.30;99860.28;4991291;28;104277;-68
2021/12/13 06:15:29;;;;;;;8.50;7.70;;;;;;;8.24;90.37;99859.75;4996294;28;103242;-68
2021/12/13 06:18:07;;;;;;;9.18;8.38;;;;;;;8.14;90.67;99859.31;4993939;28;103198;-68
2021/12/13 06:20:42;;;;;;;8.00;7.30;;;;;;;8.31;90.06;99858.63;5006197;28;102625;-68
2021/12/13 06:23:14;;;;;;;11.13;9.93;;;;;;;8.17;88.89;99859.16;5004324;27;102783;-68
2021/12/13 06:25:45;;;;;;;9.63;8.73;;;;;;;8.20;90.00;99855.56;4992576;28;103929;-68
2021/12/13 06:28:22;;;;;;;10.48;9.38;;;;;;;8.18;89.49;99863.53;5010578;28;103185;-67
2021/12/13 06:31:01;;;;;;;10.80;9.77;;;;;;;8.09;88.82;99862.16;4996329;28;103078;-67
2021/12/13 06:33:44;;;;;;;12.48;11.10;;;;;;;7.96;89.57;99863.63;5000076;28;102684;-67
2021/12/13 06:36:12;;;;;;;11.75;10.65;;;;;;;8.06;90.50;99869.31;5007008;28;103890;-67
2021/12/13 06:38:50;;;;;;;10.68;9.55;;;;;;;8.25;89.81;99864.97;5006155;28;102574;-68
2021/12/13 06:41:32;;;;;;;12.30;11.10;;;;;;;8.13;90.04;99865.50;4999180;28;102686;-67
2021/12/13 06:44:03;;;;;;;11.80;10.55;;;;;;;8.17;89.92;99861.81;5002266;28;102553;-68
2021/12/13 06:46:47;;;;;;;9.57;8.67;;;;;;;8.37;89.97;99858.31;4998155;28;103254;-68
2021/12/13 06:49:24;;;;;;;8.23;7.50;;;;;;;8.44;89.25;99863.25;4998145;28;103282;-68
2021/12/13 06:51:56;;;;;;;8.73;7.88;;;;;;;8.47;88.87;99865.75;4998836;28;102616;-68
2021/12/13 06:54:35;;;;;;;8.13;7.43;;;;;;;8.55;88.39;99862.75;5004413;28;102831;-68
2021/12/13 06:57:08;;;;;;;10.32;9.27;;;;;;;8.54;87.61;99861.91;4997006;28;103254;-68
2021/12/13 06:59:45;;;;;;;9.82;8.93;;;;;;;8.44;88.94;99870.28;5000776;28;103429;-67
2021/12/13 07:02:17;;;;;;;17.25;14.35;;;;;;;7.46;92.84;99873.66;4996963;28;102745;-68
2021/12/13 07:05:01;;;;;;;11.87;10.67;;;;;;;8.03;92.25;99877.34;5008794;28;102960;-68
2021/12/13 07:07:35;;;;;;;11.03;10.10;;;;;;;8.26;90.98;99881.59;4997394;28;103224;-68
2021/12/13 07:10:10;;;;;;;9.70;8.88;;;;;;;8.43;90.47;99885.25;4996341;28;103232;-67
2021/12/13 07:12:47;;;;;;;13.15;11.82;;;;;;;8.23;89.94;99876.47;5000517;28;102871;-68
2021/12/13 07:15:30;;;;;;;12.80;11.50;;;;;;;8.31;90.22;99885.78;4995481;28;102778;-68
2021/12/13 07:18:09;;;;;;;13.18;11.82;;;;;;;8.43;89.71;99885.25;4993866;28;103484;-67
2021/12/13 07:20:40;;;;;;;10.43;9.52;;;;;;;8.54;89.07;99877.69;4994937;28;103180;-67
2021/12/13 07:23:09;;;;;;;13.25;11.95;;;;;;;8.53;88.53;99870.72;5002765;28;103511;-68
2021/12/13 07:25:39;;;;;;;10.70;9.70;;;;;;;8.58;88.74;99871.38;5003364;28;102798;-68
2021/12/13 07:28:10;;;;;;;11.57;10.38;;;;;;;8.49;88.66;99879.69;4999548;28;104334;-67
2021/12/13 07:30:40;;;;;;;13.85;12.23;;;;;;;8.11;89.45;99880.53;4997520;28;103196;-67
2021/12/13 07:33:12;;;;;;;9.52;8.73;;;;;;;8.44;89.63;99884.31;4997960;28;102657;-68
2021/12/13 07:35:45;;;;;;;12.10;10.90;;;;;;;8.47;88.65;99876.28;5001048;28;103934;-68
2021/12/13 07:38:25;;;;;;;15.27;12.23;;;;;;;8.22;89.20;99878.28;4998119;28;103547;-67
2021/12/13 07:40:57;;;;;;;13.75;12.27;;;;;;;8.04;90.00;99894.88;4996212;28;103229;-68
2021/12/13 07:43:29;;;;;;;12.65;11.45;;;;;;;8.23;90.52;99879.97;4995170;28;102856;-68
2021/12/13 07:46:03;;;;;;;14.85;13.35;;;;;;;7.97;91.94;99890.78;4993425;28;102727;-67
2021/12/13 07:48:36;;;;;;;11.98;10.88;;;;;;;8.23;91.40;99887.88;4997668;28;104086;-68
2021/12/13 07:51:13;;;;;;;11.13;10.13;;;;;;;8.45;90.45;99890.44;4998974;28;104260;-68
2021/12/13 07:53:48;;;;;;;16.57;14.90;;;;;;;7.79;91.54;99897.69;4996807;28;102614;-68
2021/12/13 07:56:22;;;;;;;12.90;11.70;;;;;;;8.18;91.69;99893.34;4999640;28;102569;-68
2021/12/13 07:58:52;;;;;;;10.48;9.57;;;;;;;8.48;90.53;99890.28;4996977;28;103219;-68
2021/12/13 08:01:23;;;;;;;11.43;10.43;;;;;;;8.59;89.43;99891.50;5004282;28;103342;-67
2021/12/13 08:03:58;;;;;;;11.45;10.35;;;;;;;8.72;88.88;99891.81;4999683;28;102970;-68
2021/12/13 08:06:32;;;;;;;13.23;11.95;;;;;;;8.74;88.68;99890.81;5000541;28;103973;-68
2021/12/13 08:09:05;;;;;;;12.73;11.52;;;;;;;8.69;88.98;99900.72;4998997;28;103208;-68
2021/12/13 08:11:45;;;;;;;12.73;11.52;;;;;;;8.78;88.21;99902.09;4998587;28;103320;-68
2021/12/13 08:14:14;;;;;;;15.30;13.77;;;;;;;8.64;88.72;99901.88;4996460;28;102828;-67
2021/12/13 08:16:47;;;;;;;13.03;11.80;;;;;;;8.85;87.99;99892.94;4989562;28;102837;-67
2021/12/13 08:19:24;;;;;;;13.40;12.00;;;;;;;8.86;87.85;99899.09;4998453;28;103207;-67
2021/12/13 08:21:57;;;;;;;13.45;12.18;;;;;;;8.77;88.19;99897.72;4992912;28;103174;-67
2021/12/13 08:24:32;;;;;;;13.48;12.38;;;;;;;8.70;88.74;99899.78;4998109;28;102889;-67
2021/12/13 08:27:06;;;;;;;13.67;12.37;;;;;;;8.98;88.26;99901.16;5003252;28;103956;-67
2021/12/13 08:29:41;;;;;;;14.40;13.07;;;;;;;8.90;87.88;99909.41;5009585;28;103980;-67
2021/12/13 08:32:17;;;;;;;11.47;10.37;;;;;;;9.10;87.58;99900.56;5000781;28;103214;-68
2021/12/13 08:34:50;;;;;;;13.82;12.57;;;;;;;8.81;88.19;99904.59;5007734;28;102598;-67
2021/12/13 08:37:25;;;;;;;14.60;13.20;;;;;;;8.89;88.26;99906.84;4998816;28;102548;-67
2021/12/13 08:39:58;;;;;;;15.30;13.80;;;;;;;8.85;88.64;99902.63;5005858;27;104669;-67
2021/12/13 08:42:30;;;;;;;15.18;13.68;;;;;;;8.74;89.45;99900.50;5003288;28;103267;-67
2021/12/13 08:45:05;;;;;;;12.20;11.15;;;;;;;9.09;88.24;99906.78;5003733;28;102774;-67
2021/12/13 08:47:39;;;;;;;14.95;13.48;;;;;;;9.06;87.89;99909.56;5006617;28;103234;-67
2021/12/13 08:50:15;;;;;;;15.07;13.52;;;;;;;9.10;87.99;99903.19;5000939;28;103446;-67
2021/12/13 08:52:46;;;;;;;15.27;13.88;;;;;;;9.03;87.75;99918.47;5009586;28;103240;-67
2021/12/13 08:55:20;;;;;;;16.02;14.43;;;;;;;9.08;88.08;99920.88;5001537;28;103340;-67
2021/12/13 08:57:55;;;;;;;17.60;15.88;;;;;;;8.73;88.74;99915.44;4996709;28;104027;-67
2021/12/13 09:00:35;;;;;;;15.95;14.52;;;;;;;9.04;88.87;99909.63;5004446;28;103996;-68
2021/12/13 09:03:20;;;;;;;18.02;16.23;;;;;;;9.13;87.71;99914.47;5011979;28;103774;-68
2021/12/13 09:05:59;;;;;;;17.45;15.65;;;;;;;8.73;89.26;99923.34;5002143;28;102592;-68
2021/12/13 09:08:33;;;;;;;14.02;12.77;;;;;;;9.10;89.66;99919.88;5001360;28;103995;-67
2021/12/13 09:11:13;;;;;;;16.80;15.10;;;;;;;8.98;88.08;99911.69;5003526;28;102970;-67
2021/12/13 09:13:49;;;;;;;16.95;15.20;;;;;;;9.04;89.47;99924.59;5002597;28;103241;-67
2021/12/13 09:16:21;;;;;;;16.75;15.15;;;;;;;9.15;88.46;99932.88;5006667;28;102569;-67
2021/12/13 09:19:06;;;;;;;14.17;12.87;;;;;;;9.45;87.95;99923.47;5001091;28;102676;-67
2021/12/13 09:21:48;;;;;;;17.15;15.38;;;;;;;8.95;90.04;99925.88;5004424;28;103187;-67
2021/12/13 09:24:25;;;;;;;17.93;16.03;;;;;;;9.00;90.39;99930.94;5004130;28;103196;-67
2021/12/13 09:26:57;;;;;;;18.33;16.42;;;;;;;9.10;89.87;99934.84;5000744;28;102993;-67
2021/12/13 09:29:29;;;;;;;17.42;14.93;;;;;;;9.05;90.42;99936.84;5001195;28;102736;-67
2021/12/13 09:32:00;;;;;;;14.53;13.10;;;;;;;9.34;89.54;99933.69;4998219;28;103971;-67
2021/12/13 09:34:29;;;;;;;16.67;14.85;;;;;;;9.20;89.01;99936.13;5001190;28;103198;-67
2021/12/13 09:36:58;;;;;;;14.57;13.13;;;;;;;9.41;88.42;99939.50;5008515;28;102726;-68
2021/12/13 09:39:28;;;;;;;15.02;13.52;;;;;;;9.33;88.34;99931.97;5002136;28;104145;-68
2021/12/13 09:42:00;;;;;;;13.27;12.07;;;;;;;9.67;87.45;99929.41;5008962;28;103294;-67
2021/12/13 09:44:33;;;;;;;16.00;13.82;;;;;;;9.56;87.97;99928.22;4999906;28;103242;-67
2021/12/13 09:47:06;;;;;;;15.05;13.60;;;;;;;9.57;88.02;99928.13;5005009;28;102699;-67
2021/12/13 09:49:40;;;;;;;13.85;12.45;;;;;;;9.58;87.78;99921.94;4998732;28;102692;-68
2021/12/13 09:52:13;;;;;;;17.90;15.93;;;;;;;9.39;88.46;99926.41;4997496;28;103199;-68
2021/12/13 09:54:45;;;;;;;20.73;17.42;;;;;;;9.30;88.86;99924.22;4999888;28;103200;-68
2021/12/13 09:57:17;;;;;;;22.03;17.90;;;;;;;9.14;90.59;99920.59;5000472;28;103403;-68
2021/12/13 10:00:10;;;;;;;16.75;14.57;;;;;;;9.31;90.46;99918.00;4995461;28;104221;-66
2021/12/13 10:02:42;;;;;;;13.48;12.18;;;;;;;9.77;89.55;99917.47;5006381;28;104356;-66
2021/12/13 10:05:16;;;;;;;16.25;14.55;;;;;;;9.84;88.96;99913.59;5002330;28;103249;-67
2021/12/13 10:07:52;;;;;;;18.90;16.10;;;;;;;9.84;87.56;99908.31;4997571;28;102588;-67
2021/12/13 10:10:26;;;;;;;15.65;14.05;;;;;;;10.00;87.35;99907.53;4998162;28;102672;-66
2021/12/13 10:12:58;;;;;;;18.63;15.30;;;;;;;9.88;86.96;99909.84;4999006;28;103282;-68
2021/12/13 10:15:34;;;;;;;16.90;14.27;;;;;;;10.02;88.30;99903.88;4997801;28;103259;-66
2021/12/13 10:18:06;;;;;;;19.25;15.85;;;;;;;9.72;88.56;99908.91;5000102;28;102708;-66
2021/12/13 10:20:37;;;;;;;15.65;14.05;;;;;;;9.84;90.01;99910.97;5002977;28;102654;-66
2021/12/13 10:23:10;;;;;;;16.70;14.80;;;;;;;9.60;90.83;99909.53;5002530;28;104205;-66
2021/12/13 10:25:42;;;;;;;15.70;14.02;;;;;;;9.78;90.94;99903.34;5000084;28;103314;-66
2021/12/13 10:28:17;;;;;;;17.60;14.57;;;;;;;9.68;90.92;99902.09;4996379;28;102822;-66
2021/12/13 10:30:48;;;;;;;15.55;13.90;;;;;;;9.78;90.99;99898.06;5002669;28;102634;-66
2021/12/13 10:33:20;;;;;;;16.00;14.20;;;;;;;9.91;90.16;99899.13;5009136;28;103270;-66
2021/12/13 10:35:49;;;;;;;17.85;14.90;;;;;;;9.90;89.22;99886.91;5003068;28;103158;-66
2021/12/13 10:38:24;;;;;;;16.05;14.35;;;;;;;10.03;89.70;99892.38;5002086;28;102916;-66
2021/12/13 10:40:55;;;;;;;14.55;12.95;;;;;;;10.32;88.87;99883.84;4998896;28;103869;-66
2021/12/13 10:43:28;;;;;;;17.08;14.35;;;;;;;10.31;87.86;99886.56;4994598;28;103408;-66
2021/12/13 10:46:02;;;;;;;19.90;16.83;;;;;;;10.10;88.72;99888.50;4996781;28;103203;-66
2021/12/13 10:48:32;;;;;;;18.30;15.65;;;;;;;10.21;88.02;99888.84;4999715;28;102606;-66
2021/12/13 10:51:06;;;;;;;15.75;14.10;;;;;;;10.31;88.83;99886.56;4996731;28;103962;-66
2021/12/13 10:53:38;;;;;;;16.35;14.63;;;;;;;10.29;88.98;99884.00;4994453;28;103321;-66
2021/12/13 10:56:08;;;;;;;16.48;14.75;;;;;;;9.91;92.15;99888.59;4997590;28;103713;-66
2021/12/13 10:58:44;;;;;;;18.65;16.63;;;;;;;10.03;91.21;99892.38;5002205;28;102699;-66
2021/12/13 11:01:19;;;;;;;16.35;14.52;;;;;;;10.29;90.26;99888.44;4999312;28;103843;-66
2021/12/13 11:03:49;;;;;;;19.88;17.13;;;;;;;10.08;88.49;99881.56;4995954;28;104188;-66
2021/12/13 11:06:18;;;;;;;18.33;16.17;;;;;;;10.17;89.61;99887.28;5003190;28;103481;-66
2021/12/13 11:08:48;;;;;;;17.90;15.95;;;;;;;10.38;88.91;99877.38;5010404;28;102681;-66
2021/12/13 11:11:24;;;;;;;18.80;15.93;;;;;;;10.32;89.34;99875.06;5008447;28;103057;-66
2021/12/13 11:13:55;;;;;;;22.27;17.15;;;;;;;10.30;89.27;99874.31;5001267;28;103914;-66
2021/12/13 11:16:34;;;;;;;17.95;16.02;;;;;;;10.29;89.62;99873.44;4997193;28;103178;-66
2021/12/13 11:19:04;;;;;;;19.30;16.70;;;;;;;9.91;90.70;99872.75;4997330;28;103516;-66
2021/12/13 11:21:34;;;;;;;14.57;13.07;;;;;;;10.43;90.31;99864.78;4996454;28;102559;-66
2021/12/13 11:24:09;;;;;;;18.13;15.15;;;;;;;10.47;88.88;99858.38;5003589;28;103918;-66
2021/12/13 11:26:40;;;;;;;14.65;13.15;;;;;;;10.57;89.07;99853.47;5018302;28;103194;-66
2021/12/13 11:29:14;;;;;;;23.55;18.08;;;;;;;9.51;92.79;99861.66;4997803;28;102796;-66
2021/12/13 11:32:28;;;;;;;18.05;15.60;;;;;;;10.19;91.77;99852.88;5000507;28;102665;-67
2021/12/13 11:35:28;;;;;;;18.27;15.10;;;;;;;10.16;90.04;99853.03;5000044;28;103269;-67
2021/12/13 11:38:20;;;;;;;22.27;17.70;;;;;;;9.79;92.42;99844.34;4999705;28;103210;-67
2021/12/13 11:41:12;;;;;;;15.85;14.15;;;;;;;10.18;91.77;99853.81;4997952;28;102962;-68
2021/12/13 11:44:04;;;;;;;19.35;15.32;;;;;;;10.17;90.64;99854.72;4989608;28;103864;-66
2021/12/13 11:47:07;;;;;;;15.15;13.63;;;;;;;10.48;90.14;99852.16;4997164;28;104061;-67
2021/12/13 11:49:48;;;;;;;15.13;13.45;;;;;;;10.67;89.63;99850.22;5002462;28;103275;-67
2021/12/13 11:52:52;;;;;;;12.88;11.65;;;;;;;10.94;87.78;99856.66;4994056;28;102816;-67
2021/12/13 11:55:44;;;;;;;14.83;12.60;;;;;;;11.05;87.71;99848.97;4995256;28;103919;-67
2021/12/13 11:58:49;;;;;;;18.30;14.55;;;;;;;10.23;88.84;99852.63;4992093;28;103506;-67
2021/12/13 12:01:39;;;;;;;14.02;12.65;;;;;;;10.62;90.33;99854.06;4995593;28;103002;-66